Pagrindinis puslapis
METAR-TAF:

METAR-TAF

Oro uostai :

Nordholz, Vokietija

platuma: 53-46N, ilguma: 008-40E, Aukštis: 23 m

Dabartinis oras

Ataskaita buvo paskelbta 1 valandą ir 2 minutes, ne 01:20 UTC
Vėjas 6 kt iš Pietų/Pietvakarių
Temperatūra 2°C
Drėgmė 87%
Slėgis 1018 hPa
Matomumas 10 km arba daugiau
Mažai debesys ne aukštis 1300 ft
Su prošvaistėmis ne aukštis 9000 ft

METAR: ETMN 280120Z 20006KT 9999 FEW013 BKN090 02/M00 Q1018 BLU

Laikas: 03:22 (02:22 UTC)

Prognozė

Ataskaita buvo paskelbta 7 valandos ir 56 minutes, ne 18:26 UTC
Prognozė galioja nuo 27 metu 18 UTC su 28 metu 03 UTC
Vėjas 3 kt nuo kintamojo kryptimis
Matomumas 10 km arba daugiau
Su prošvaistėmis ne aukštis 700 ft
Laikinai
nuo 27 metu 18 UTC su 27 metu 21 UTC
Vėjas 5 kt iš Pietvakarių
Matomumas: 8000 m
Apsiniaukę ne aukštis 600 ft
Tapsmas
nuo 27 metu 20 UTC su 27 metu 21 UTC
Vėjas 5 kt iš Pietų
Matomumas: 4000 m
Su prošvaistėmis ne aukštis 500 ft
rūkana,

TAF: ETMN 271826Z 2718/2803 VRB03KT 9999 NSW BKN007 TEMPO 2718/2721 22005KT 8000 NSW OVC006 BECMG 2720/2721 18005KT 4000 BR BKN005

Orai ataskaitas ir orų prognozės (METAR, TAF).

turimą stotys yra geltonos ir raudonos taškus žemėlapyje.

Perkelti pele per norėdami pamatyti stoties vardą.

Tada spustelėkite, norėdami matyti oro stebėjimo ir prognozės.

Norėdami pakeisti žemėlapį: spustelėkite ant žalios mygtukų su juodo kryžiaus žemyn,; žalią mygtuką su brūkšneliu, jei norite nutolinti; arba žalių rodyklių gretimoms žemėlapius.


METAR-TAF: